sensor_id;sensor_type;location;lat;lon;timestamp;temperature;humidity
11246;DHT22;59870;50.106;8.580;2022-09-25T01:54:40;18.10;96.80
11246;DHT22;59870;50.106;8.580;2022-09-25T01:57:26;18.10;96.80
11246;DHT22;59870;50.106;8.580;2022-09-25T02:00:00;18.10;96.90
11246;DHT22;59870;50.106;8.580;2022-09-25T02:03:31;18.10;96.90
11246;DHT22;59870;50.106;8.580;2022-09-25T02:05:40;18.10;96.90
11246;DHT22;59870;50.106;8.580;2022-09-25T02:08:16;18.10;96.90
11246;DHT22;59870;50.106;8.580;2022-09-25T02:10:52;18.10;96.90
11246;DHT22;59870;50.106;8.580;2022-09-25T02:13:25;18.10;96.90
11246;DHT22;59870;50.106;8.580;2022-09-25T02:15:58;18.10;96.90
11246;DHT22;59870;50.106;8.580;2022-09-25T02:18:27;18.10;97.00
11246;DHT22;59870;50.106;8.580;2022-09-25T02:24:18;18.10;96.90
11246;DHT22;59870;50.106;8.580;2022-09-25T02:26:50;18.10;96.90
11246;DHT22;59870;50.106;8.580;2022-09-25T02:29:18;18.10;96.90
11246;DHT22;59870;50.106;8.580;2022-09-25T02:31:58;18.40;97.00
11246;DHT22;59870;50.106;8.580;2022-09-25T02:34:28;18.10;96.90
11246;DHT22;59870;50.106;8.580;2022-09-25T02:36:55;18.30;97.00
11246;DHT22;59870;50.106;8.580;2022-09-25T02:39:24;18.10;96.90
11246;DHT22;59870;50.106;8.580;2022-09-25T02:47:33;18.10;96.80
11246;DHT22;59870;50.106;8.580;2022-09-25T04:20:34;17.80;97.50
11246;DHT22;59870;50.106;8.580;2022-09-25T04:23:04;17.80;97.50
11246;DHT22;59870;50.106;8.580;2022-09-25T04:25:32;17.80;97.60
11246;DHT22;59870;50.106;8.580;2022-09-25T04:27:59;18.00;97.70
11246;DHT22;59870;50.106;8.580;2022-09-25T04:30:28;17.80;97.60
11246;DHT22;59870;50.106;8.580;2022-09-25T04:32:56;18.00;97.60
11246;DHT22;59870;50.106;8.580;2022-09-25T04:35:42;17.80;97.60
11246;DHT22;59870;50.106;8.580;2022-09-25T04:38:09;17.80;97.50
11246;DHT22;59870;50.106;8.580;2022-09-25T04:40:37;17.80;97.50
11246;DHT22;59870;50.106;8.580;2022-09-25T04:43:05;17.80;97.60
11246;DHT22;59870;50.106;8.580;2022-09-25T04:45:34;17.80;97.60
11246;DHT22;59870;50.106;8.580;2022-09-25T04:48:03;17.80;97.70
11246;DHT22;59870;50.106;8.580;2022-09-25T04:50:32;17.80;97.70
11246;DHT22;59870;50.106;8.580;2022-09-25T04:53:02;17.80;97.70
11246;DHT22;59870;50.106;8.580;2022-09-25T04:55:30;17.80;97.60
11246;DHT22;59870;50.106;8.580;2022-09-25T04:57:59;18.20;97.90
11246;DHT22;59870;50.106;8.580;2022-09-25T05:00:29;18.00;97.80
11246;DHT22;59870;50.106;8.580;2022-09-25T05:02:57;17.80;97.70
11246;DHT22;59870;50.106;8.580;2022-09-25T05:05:25;18.00;97.70
11246;DHT22;59870;50.106;8.580;2022-09-25T05:07:55;18.00;97.70
11246;DHT22;59870;50.106;8.580;2022-09-25T05:10:24;18.00;97.70
11246;DHT22;59870;50.106;8.580;2022-09-25T05:13:01;17.80;97.50
11246;DHT22;59870;50.106;8.580;2022-09-25T05:15:30;17.80;97.60
11246;DHT22;59870;50.106;8.580;2022-09-25T05:18:19;18.00;97.70
11246;DHT22;59870;50.106;8.580;2022-09-25T05:20:48;17.80;97.60
11246;DHT22;59870;50.106;8.580;2022-09-25T05:39:31;17.80;97.60
11246;DHT22;59870;50.106;8.580;2022-09-25T05:41:58;18.00;97.50
11246;DHT22;59870;50.106;8.580;2022-09-25T05:44:26;17.80;97.40
11246;DHT22;59870;50.106;8.580;2022-09-25T05:46:54;18.00;97.70
11246;DHT22;59870;50.106;8.580;2022-09-25T06:08:42;17.60;96.90
11246;DHT22;59870;50.106;8.580;2022-09-25T06:11:23;17.80;96.80
11246;DHT22;59870;50.106;8.580;2022-09-25T06:13:51;17.60;96.70
11246;DHT22;59870;50.106;8.580;2022-09-25T06:16:21;17.70;97.20
11246;DHT22;59870;50.106;8.580;2022-09-25T06:18:49;17.70;97.10
11246;DHT22;59870;50.106;8.580;2022-09-25T06:21:18;17.50;97.00
11246;DHT22;59870;50.106;8.580;2022-09-25T06:23:46;17.70;97.20
11246;DHT22;59870;50.106;8.580;2022-09-25T06:26:14;17.80;97.30
11246;DHT22;59870;50.106;8.580;2022-09-25T06:28:42;17.60;97.00
11246;DHT22;59870;50.106;8.580;2022-09-25T06:31:10;17.50;96.90
11246;DHT22;59870;50.106;8.580;2022-09-25T06:33:37;17.70;97.10
11246;DHT22;59870;50.106;8.580;2022-09-25T06:36:05;17.80;97.20
11246;DHT22;59870;50.106;8.580;2022-09-25T06:38:32;17.60;97.10
11246;DHT22;59870;50.106;8.580;2022-09-25T06:41:01;17.70;97.10
11246;DHT22;59870;50.106;8.580;2022-09-25T08:02:40;17.50;97.70
11246;DHT22;59870;50.106;8.580;2022-09-25T10:01:41;17.80;96.40
11246;DHT22;59870;50.106;8.580;2022-09-25T10:13:42;18.00;96.90
11246;DHT22;59870;50.106;8.580;2022-09-25T10:16:15;18.20;96.80
11246;DHT22;59870;50.106;8.580;2022-09-25T10:21:22;18.00;96.70
11246;DHT22;59870;50.106;8.580;2022-09-25T10:23:55;18.10;96.60
11246;DHT22;59870;50.106;8.580;2022-09-25T10:26:38;18.10;96.70
11246;DHT22;59870;50.106;8.580;2022-09-25T10:31:43;18.10;96.60
11246;DHT22;59870;50.106;8.580;2022-09-25T11:27:53;17.50;95.10
11246;DHT22;59870;50.106;8.580;2022-09-25T11:30:48;17.60;95.30
11246;DHT22;59870;50.106;8.580;2022-09-25T11:44:44;17.40;94.60
11246;DHT22;59870;50.106;8.580;2022-09-25T11:47:45;17.40;94.40
11246;DHT22;59870;50.106;8.580;2022-09-25T11:50:35;17.40;93.90
11246;DHT22;59870;50.106;8.580;2022-09-25T11:56:44;17.00;94.00
11246;DHT22;59870;50.106;8.580;2022-09-25T12:00:06;17.30;94.10
11246;DHT22;59870;50.106;8.580;2022-09-25T12:02:53;17.20;94.10
11246;DHT22;59870;50.106;8.580;2022-09-25T12:05:45;17.10;93.80
11246;DHT22;59870;50.106;8.580;2022-09-25T13:13:25;17.30;93.10
11246;DHT22;59870;50.106;8.580;2022-09-25T13:15:59;17.50;93.40
11246;DHT22;59870;50.106;8.580;2022-09-25T13:25:30;17.50;92.90
11246;DHT22;59870;50.106;8.580;2022-09-25T13:53:54;18.10;92.80
11246;DHT22;59870;50.106;8.580;2022-09-25T14:01:53;18.10;92.30
11246;DHT22;59870;50.106;8.580;2022-09-25T14:04:36;18.00;92.60
11246;DHT22;59870;50.106;8.580;2022-09-25T14:07:24;18.00;92.20
11246;DHT22;59870;50.106;8.580;2022-09-25T14:10:09;18.30;92.40
11246;DHT22;59870;50.106;8.580;2022-09-25T14:12:44;18.10;92.20
11246;DHT22;59870;50.106;8.580;2022-09-25T14:17:51;18.10;91.90
11246;DHT22;59870;50.106;8.580;2022-09-25T14:20:29;18.30;92.00
11246;DHT22;59870;50.106;8.580;2022-09-25T14:23:01;18.30;91.80
11246;DHT22;59870;50.106;8.580;2022-09-25T14:25:34;18.40;92.30
11246;DHT22;59870;50.106;8.580;2022-09-25T14:28:17;18.00;92.00
11246;DHT22;59870;50.106;8.580;2022-09-25T14:33:38;18.00;91.60
11246;DHT22;59870;50.106;8.580;2022-09-25T14:42:03;18.00;91.40
11246;DHT22;59870;50.106;8.580;2022-09-25T14:44:41;18.10;91.60
11246;DHT22;59870;50.106;8.580;2022-09-25T14:47:16;18.10;91.10
11246;DHT22;59870;50.106;8.580;2022-09-25T14:49:48;18.10;91.40
11246;DHT22;59870;50.106;8.580;2022-09-25T14:52:24;18.10;91.60
11246;DHT22;59870;50.106;8.580;2022-09-25T14:54:54;18.40;91.50
11246;DHT22;59870;50.106;8.580;2022-09-25T14:57:33;18.10;91.70
11246;DHT22;59870;50.106;8.580;2022-09-25T15:00:05;18.10;91.80
11246;DHT22;59870;50.106;8.580;2022-09-25T15:02:39;18.20;91.90
11246;DHT22;59870;50.106;8.580;2022-09-25T15:07:49;18.20;91.80
11246;DHT22;59870;50.106;8.580;2022-09-25T15:13:24;18.30;91.70
11246;DHT22;59870;50.106;8.580;2022-09-25T15:15:56;18.30;91.90
11246;DHT22;59870;50.106;8.580;2022-09-25T15:18:53;18.40;91.80
11246;DHT22;59870;50.106;8.580;2022-09-25T15:21:29;18.40;91.60
11246;DHT22;59870;50.106;8.580;2022-09-25T15:24:03;18.40;91.60
11246;DHT22;59870;50.106;8.580;2022-09-25T15:26:32;18.50;91.80
11246;DHT22;59870;50.106;8.580;2022-09-25T15:29:21;18.70;91.80
11246;DHT22;59870;50.106;8.580;2022-09-25T15:31:50;18.50;91.40
11246;DHT22;59870;50.106;8.580;2022-09-25T15:34:24;18.70;91.30
11246;DHT22;59870;50.106;8.580;2022-09-25T15:36:52;18.50;91.00
11246;DHT22;59870;50.106;8.580;2022-09-25T15:39:23;18.70;90.70
11246;DHT22;59870;50.106;8.580;2022-09-25T15:41:51;18.60;90.70
11246;DHT22;59870;50.106;8.580;2022-09-25T15:44:22;18.70;91.10
11246;DHT22;59870;50.106;8.580;2022-09-25T15:46:52;18.50;91.10
11246;DHT22;59870;50.106;8.580;2022-09-25T15:49:40;18.50;91.60
11246;DHT22;59870;50.106;8.580;2022-09-25T15:52:27;18.50;91.50
11246;DHT22;59870;50.106;8.580;2022-09-25T15:55:05;18.50;91.70
11246;DHT22;59870;50.106;8.580;2022-09-25T15:57:40;18.60;91.60
11246;DHT22;59870;50.106;8.580;2022-09-25T16:00:20;18.60;91.60
11246;DHT22;59870;50.106;8.580;2022-09-25T16:05:59;18.60;91.80
11246;DHT22;59870;50.106;8.580;2022-09-25T16:08:33;18.60;91.60
11246;DHT22;59870;50.106;8.580;2022-09-25T16:11:12;18.70;91.60
11246;DHT22;59870;50.106;8.580;2022-09-25T16:13:45;18.70;91.70
11246;DHT22;59870;50.106;8.580;2022-09-25T16:18:50;18.80;91.30
11246;DHT22;59870;50.106;8.580;2022-09-25T16:21:27;18.80;91.20
11246;DHT22;59870;50.106;8.580;2022-09-25T16:24:04;18.80;91.20
11246;DHT22;59870;50.106;8.580;2022-09-25T16:26:38;18.80;91.40
11246;DHT22;59870;50.106;8.580;2022-09-25T16:31:39;18.80;91.40
11246;DHT22;59870;50.106;8.580;2022-09-25T16:37:07;18.80;91.80
11246;DHT22;59870;50.106;8.580;2022-09-25T16:39:44;18.80;91.80
11246;DHT22;59870;50.106;8.580;2022-09-25T16:45:02;18.80;92.20
11246;DHT22;59870;50.106;8.580;2022-09-25T16:47:30;18.90;92.40
11246;DHT22;59870;50.106;8.580;2022-09-25T16:50:01;18.90;92.00
11246;DHT22;59870;50.106;8.580;2022-09-25T16:52:30;19.20;92.50
11246;DHT22;59870;50.106;8.580;2022-09-25T16:55:04;18.80;91.90
11246;DHT22;59870;50.106;8.580;2022-09-25T16:57:35;18.80;92.20
11246;DHT22;59870;50.106;8.580;2022-09-25T17:00:03;18.80;92.40
11246;DHT22;59870;50.106;8.580;2022-09-25T17:02:41;18.80;92.70
11246;DHT22;59870;50.106;8.580;2022-09-25T17:05:16;18.80;91.80
11246;DHT22;59870;50.106;8.580;2022-09-25T17:07:50;18.70;92.10
11246;DHT22;59870;50.106;8.580;2022-09-25T17:10:26;18.80;92.60
11246;DHT22;59870;50.106;8.580;2022-09-25T17:13:00;18.70;92.50
11246;DHT22;59870;50.106;8.580;2022-09-25T17:15:34;18.70;92.60
11246;DHT22;59870;50.106;8.580;2022-09-25T17:18:08;18.70;92.60
11246;DHT22;59870;50.106;8.580;2022-09-25T17:20:38;18.60;92.60
11246;DHT22;59870;50.106;8.580;2022-09-25T17:23:08;18.60;92.60
11246;DHT22;59870;50.106;8.580;2022-09-25T17:28:08;18.60;93.00
11246;DHT22;59870;50.106;8.580;2022-09-25T17:30:37;18.80;92.70
11246;DHT22;59870;50.106;8.580;2022-09-25T17:33:07;18.90;92.90
11246;DHT22;59870;50.106;8.580;2022-09-25T17:35:50;18.80;92.90
11246;DHT22;59870;50.106;8.580;2022-09-25T17:38:18;18.50;92.70
11246;DHT22;59870;50.106;8.580;2022-09-25T17:40:47;18.80;92.70
11246;DHT22;59870;50.106;8.580;2022-09-25T17:43:19;18.80;92.80
11246;DHT22;59870;50.106;8.580;2022-09-25T17:45:51;18.70;92.80
11246;DHT22;59870;50.106;8.580;2022-09-25T17:48:28;18.50;92.80
11246;DHT22;59870;50.106;8.580;2022-09-25T17:51:00;18.50;92.60
11246;DHT22;59870;50.106;8.580;2022-09-25T17:53:32;18.50;92.50
11246;DHT22;59870;50.106;8.580;2022-09-25T17:56:00;18.50;92.50
11246;DHT22;59870;50.106;8.580;2022-09-25T17:58:29;18.50;92.60
11246;DHT22;59870;50.106;8.580;2022-09-25T18:01:01;18.40;92.60
11246;DHT22;59870;50.106;8.580;2022-09-25T18:03:33;18.50;92.80
11246;DHT22;59870;50.106;8.580;2022-09-25T18:06:02;18.40;92.70
11246;DHT22;59870;50.106;8.580;2022-09-25T18:08:30;18.40;93.00
11246;DHT22;59870;50.106;8.580;2022-09-25T18:10:57;18.50;92.80
11246;DHT22;59870;50.106;8.580;2022-09-25T18:13:26;18.50;93.00
11246;DHT22;59870;50.106;8.580;2022-09-25T18:15:57;18.50;92.70
11246;DHT22;59870;50.106;8.580;2022-09-25T18:18:25;18.30;92.80
11246;DHT22;59870;50.106;8.580;2022-09-25T18:21:12;18.50;92.80
11246;DHT22;59870;50.106;8.580;2022-09-25T18:23:58;18.30;92.70
11246;DHT22;59870;50.106;8.580;2022-09-25T18:26:26;18.30;92.60
11246;DHT22;59870;50.106;8.580;2022-09-25T18:28:57;18.30;92.60
11246;DHT22;59870;50.106;8.580;2022-09-25T18:31:25;18.30;92.70
11246;DHT22;59870;50.106;8.580;2022-09-25T18:33:53;18.20;92.70
11246;DHT22;59870;50.106;8.580;2022-09-25T18:36:21;18.20;92.70
11246;DHT22;59870;50.106;8.580;2022-09-25T18:38:49;18.20;92.70
11246;DHT22;59870;50.106;8.580;2022-09-25T18:41:16;18.20;92.70
11246;DHT22;59870;50.106;8.580;2022-09-25T18:43:44;18.20;92.70
11246;DHT22;59870;50.106;8.580;2022-09-25T18:46:11;18.10;92.70
11246;DHT22;59870;50.106;8.580;2022-09-25T18:48:43;18.10;92.60
11246;DHT22;59870;50.106;8.580;2022-09-25T18:51:10;18.10;92.60
11246;DHT22;59870;50.106;8.580;2022-09-25T18:53:38;18.10;92.60
11246;DHT22;59870;50.106;8.580;2022-09-25T18:56:06;18.10;92.60
11246;DHT22;59870;50.106;8.580;2022-09-25T18:58:34;18.10;92.60
11246;DHT22;59870;50.106;8.580;2022-09-25T19:01:01;18.00;92.50
11246;DHT22;59870;50.106;8.580;2022-09-25T19:03:29;18.00;92.50
11246;DHT22;59870;50.106;8.580;2022-09-25T19:06:00;18.40;92.70
11246;DHT22;59870;50.106;8.580;2022-09-25T19:08:30;18.00;92.50
11246;DHT22;59870;50.106;8.580;2022-09-25T19:10:57;18.00;92.50
11246;DHT22;59870;50.106;8.580;2022-09-25T19:13:26;18.00;92.50
11246;DHT22;59870;50.106;8.580;2022-09-25T19:15:54;18.00;92.60
11246;DHT22;59870;50.106;8.580;2022-09-25T19:18:23;18.00;92.50
11246;DHT22;59870;50.106;8.580;2022-09-25T19:20:51;18.00;92.50
11246;DHT22;59870;50.106;8.580;2022-09-25T19:23:23;18.00;92.60
11246;DHT22;59870;50.106;8.580;2022-09-25T19:25:56;17.90;92.60
11246;DHT22;59870;50.106;8.580;2022-09-25T19:28:25;17.90;92.60
11246;DHT22;59870;50.106;8.580;2022-09-25T19:33:24;17.80;92.50
11246;DHT22;59870;50.106;8.580;2022-09-25T19:35:56;17.80;92.50
11246;DHT22;59870;50.106;8.580;2022-09-25T19:38:24;17.70;92.50
11246;DHT22;59870;50.106;8.580;2022-09-25T19:40:52;17.70;92.50
11246;DHT22;59870;50.106;8.580;2022-09-25T19:43:19;17.70;92.50
11246;DHT22;59870;50.106;8.580;2022-09-25T19:45:52;17.60;92.40
11246;DHT22;59870;50.106;8.580;2022-09-25T19:48:22;17.60;92.50
11246;DHT22;59870;50.106;8.580;2022-09-25T19:50:51;17.60;92.50
11246;DHT22;59870;50.106;8.580;2022-09-25T19:53:18;17.70;92.50
11246;DHT22;59870;50.106;8.580;2022-09-25T19:55:50;17.50;92.50
11246;DHT22;59870;50.106;8.580;2022-09-25T19:58:20;17.50;92.60
11246;DHT22;59870;50.106;8.580;2022-09-25T20:00:50;17.50;92.60
11246;DHT22;59870;50.106;8.580;2022-09-25T20:03:19;17.40;92.60
11246;DHT22;59870;50.106;8.580;2022-09-25T20:05:47;17.30;92.60
11246;DHT22;59870;50.106;8.580;2022-09-25T20:08:16;17.30;92.60
11246;DHT22;59870;50.106;8.580;2022-09-25T20:10:44;17.20;92.60
11246;DHT22;59870;50.106;8.580;2022-09-25T20:13:11;17.20;92.70
11246;DHT22;59870;50.106;8.580;2022-09-25T20:15:39;17.20;92.70
11246;DHT22;59870;50.106;8.580;2022-09-25T20:18:09;17.10;92.70
11246;DHT22;59870;50.106;8.580;2022-09-25T20:20:36;17.10;92.80
11246;DHT22;59870;50.106;8.580;2022-09-25T20:23:06;17.10;92.70
11246;DHT22;59870;50.106;8.580;2022-09-25T20:25:34;17.00;92.80
11246;DHT22;59870;50.106;8.580;2022-09-25T20:28:02;17.20;92.90
11246;DHT22;59870;50.106;8.580;2022-09-25T20:30:29;17.00;92.80
11246;DHT22;59870;50.106;8.580;2022-09-25T20:33:02;16.90;92.80
11246;DHT22;59870;50.106;8.580;2022-09-25T20:35:32;16.90;92.90
11246;DHT22;59870;50.106;8.580;2022-09-25T20:37:59;16.80;92.80
11246;DHT22;59870;50.106;8.580;2022-09-25T20:40:27;16.80;92.90
11246;DHT22;59870;50.106;8.580;2022-09-25T20:42:54;16.80;93.00
11246;DHT22;59870;50.106;8.580;2022-09-25T20:45:21;16.70;93.00
11246;DHT22;59870;50.106;8.580;2022-09-25T20:47:50;16.70;92.90
11246;DHT22;59870;50.106;8.580;2022-09-25T20:50:21;16.70;93.00
11246;DHT22;59870;50.106;8.580;2022-09-25T20:52:48;16.70;93.00
11246;DHT22;59870;50.106;8.580;2022-09-25T20:55:16;16.60;93.00
11246;DHT22;59870;50.106;8.580;2022-09-25T20:57:47;16.50;92.90
11246;DHT22;59870;50.106;8.580;2022-09-25T21:00:15;16.20;92.80
11246;DHT22;59870;50.106;8.580;2022-09-25T21:02:45;16.50;92.90
11246;DHT22;59870;50.106;8.580;2022-09-25T21:05:13;16.40;92.90
11246;DHT22;59870;50.106;8.580;2022-09-25T21:07:40;16.40;92.90
11246;DHT22;59870;50.106;8.580;2022-09-25T21:10:08;16.30;93.00
11246;DHT22;59870;50.106;8.580;2022-09-25T21:12:35;16.20;93.10
11246;DHT22;59870;50.106;8.580;2022-09-25T21:15:03;16.20;93.20
11246;DHT22;59870;50.106;8.580;2022-09-25T21:17:30;16.20;93.20
11246;DHT22;59870;50.106;8.580;2022-09-25T21:19:58;16.20;93.20
11246;DHT22;59870;50.106;8.580;2022-09-25T21:22:26;16.10;93.10
11246;DHT22;59870;50.106;8.580;2022-09-25T21:24:53;16.10;93.30
11246;DHT22;59870;50.106;8.580;2022-09-25T21:27:20;16.00;93.40
11246;DHT22;59870;50.106;8.580;2022-09-25T21:29:48;16.00;93.30
11246;DHT22;59870;50.106;8.580;2022-09-25T21:32:16;16.00;93.20
11246;DHT22;59870;50.106;8.580;2022-09-25T21:34:43;15.90;93.20
11246;DHT22;59870;50.106;8.580;2022-09-25T21:37:11;15.90;93.20
11246;DHT22;59870;50.106;8.580;2022-09-25T21:39:38;15.80;93.20
11246;DHT22;59870;50.106;8.580;2022-09-25T21:42:06;15.80;93.20
11246;DHT22;59870;50.106;8.580;2022-09-25T21:44:34;15.70;93.30
11246;DHT22;59870;50.106;8.580;2022-09-25T21:47:01;15.70;93.30
11246;DHT22;59870;50.106;8.580;2022-09-25T21:49:29;15.60;93.20
11246;DHT22;59870;50.106;8.580;2022-09-25T21:51:56;15.60;93.20
11246;DHT22;59870;50.106;8.580;2022-09-25T21:54:24;15.60;93.20
11246;DHT22;59870;50.106;8.580;2022-09-25T21:56:51;15.60;93.20
11246;DHT22;59870;50.106;8.580;2022-09-25T21:59:18;15.60;93.30
11246;DHT22;59870;50.106;8.580;2022-09-25T22:01:46;15.50;93.70
11246;DHT22;59870;50.106;8.580;2022-09-25T22:04:14;15.50;93.70
11246;DHT22;59870;50.106;8.580;2022-09-25T22:06:44;15.40;94.20
11246;DHT22;59870;50.106;8.580;2022-09-25T22:09:17;15.60;94.30
11246;DHT22;59870;50.106;8.580;2022-09-25T22:11:45;15.60;94.70
11246;DHT22;59870;50.106;8.580;2022-09-25T22:14:14;15.20;94.60
11246;DHT22;59870;50.106;8.580;2022-09-25T22:16:45;15.20;94.90
11246;DHT22;59870;50.106;8.580;2022-09-25T22:21:49;15.00;95.10
11246;DHT22;59870;50.106;8.580;2022-09-25T22:24:17;15.00;95.20
11246;DHT22;59870;50.106;8.580;2022-09-25T22:26:46;15.00;95.30
11246;DHT22;59870;50.106;8.580;2022-09-25T22:29:16;14.90;95.30
11246;DHT22;59870;50.106;8.580;2022-09-25T22:31:43;14.90;95.30
11246;DHT22;59870;50.106;8.580;2022-09-25T22:34:20;14.80;95.20
11246;DHT22;59870;50.106;8.580;2022-09-25T22:36:49;14.80;95.20
11246;DHT22;59870;50.106;8.580;2022-09-25T22:39:24;14.80;95.20
11246;DHT22;59870;50.106;8.580;2022-09-25T22:41:52;15.00;95.20
11246;DHT22;59870;50.106;8.580;2022-09-25T22:44:20;14.90;95.20
11246;DHT22;59870;50.106;8.580;2022-09-25T22:46:48;14.80;95.10
11246;DHT22;59870;50.106;8.580;2022-09-25T22:49:15;14.80;94.90
11246;DHT22;59870;50.106;8.580;2022-09-25T22:51:43;14.80;94.90
11246;DHT22;59870;50.106;8.580;2022-09-25T22:54:11;14.80;94.80
11246;DHT22;59870;50.106;8.580;2022-09-25T22:56:40;14.80;94.90
11246;DHT22;59870;50.106;8.580;2022-09-25T22:59:11;14.70;94.70
11246;DHT22;59870;50.106;8.580;2022-09-25T23:01:51;14.70;94.60
11246;DHT22;59870;50.106;8.580;2022-09-25T23:04:21;15.00;94.70
11246;DHT22;59870;50.106;8.580;2022-09-25T23:06:49;14.70;94.50
11246;DHT22;59870;50.106;8.580;2022-09-25T23:09:19;14.70;94.50
11246;DHT22;59870;50.106;8.580;2022-09-25T23:11:47;14.70;94.50
11246;DHT22;59870;50.106;8.580;2022-09-25T23:14:18;14.60;94.40
11246;DHT22;59870;50.106;8.580;2022-09-25T23:16:47;14.60;94.40
11246;DHT22;59870;50.106;8.580;2022-09-25T23:19:15;14.60;94.40
11246;DHT22;59870;50.106;8.580;2022-09-25T23:21:43;14.60;94.30
11246;DHT22;59870;50.106;8.580;2022-09-25T23:24:13;14.50;94.40
11246;DHT22;59870;50.106;8.580;2022-09-25T23:26:41;14.50;94.30
11246;DHT22;59870;50.106;8.580;2022-09-25T23:29:14;14.50;94.20
11246;DHT22;59870;50.106;8.580;2022-09-25T23:31:44;14.50;94.20
11246;DHT22;59870;50.106;8.580;2022-09-25T23:34:12;14.50;94.20
11246;DHT22;59870;50.106;8.580;2022-09-25T23:36:39;14.50;94.30
11246;DHT22;59870;50.106;8.580;2022-09-25T23:39:07;14.50;94.20
11246;DHT22;59870;50.106;8.580;2022-09-25T23:41:37;14.40;94.10
11246;DHT22;59870;50.106;8.580;2022-09-25T23:44:07;14.40;94.10
11246;DHT22;59870;50.106;8.580;2022-09-25T23:46:37;14.40;94.10
11246;DHT22;59870;50.106;8.580;2022-09-25T23:49:06;14.30;94.10
11246;DHT22;59870;50.106;8.580;2022-09-25T23:51:33;14.30;94.20
11246;DHT22;59870;50.106;8.580;2022-09-25T23:54:02;14.30;94.20
11246;DHT22;59870;50.106;8.580;2022-09-25T23:56:31;14.30;94.30
11246;DHT22;59870;50.106;8.580;2022-09-25T23:58:59;14.20;94.30
